x

West Point, Wa (wpow1) Weather Station

12:00am - Fri 18th Aug 2017 All times are PDT. -7 hours from GMT.

  • Wind
    9mph, 10mph gusts
  • Air Temp 58°f
  • Sea Pressure 1021.4mb
  • West Point, Wa
  • West Point, Wa

More Historic Weather Station data

Upgrade to MSW Pro to gain access to the past 30 days of data for over 8000 Wavebouys and Weather Stations around the globe.

Join

Comparision Forecast

View Surf forecast
   
Fri 08/18 12:00am 9 10 mph 1021.4mb 58f
Thu 08/17 11:00pm 13 14 mph 1021.6mb 60f
10:00pm 9 10 mph 1021.4mb 60f
9:00pm 8 9 mph 1021.2mb 59f
8:00pm 10 11 mph 1020.8mb 60f
7:00pm 11 11 mph 1020.9mb 60f
6:00pm 10 10 mph 1021mb 61f
5:00pm 7 8 mph 1021.3mb 62f
4:00pm 8 8 mph 1021.6mb 65f
3:00pm 5 6 mph 1022mb 67f
2:00pm 6 7 mph 1022.5mb 66f
1:00pm 3 5 mph 1022.5mb 65f
12:00pm 5 6 mph 1022.8mb 62f
11:00am 5 5 mph 1023mb 61f
10:00am 5 5 mph 1022.9mb 59f
9:00am 3 3 mph 1022.5mb 60f
8:00am  -  1 mph 1022.5mb 59f
7:00am 2 3 mph 1021.9mb 58f
6:00am 2 2 mph 1021.3mb 60f
5:00am 2 3 mph 1020.8mb 59f
4:00am 6 7 mph 1020.6mb 62f
3:00am 2 2 mph 1020.2mb 61f
2:00am 5 5 mph 1020.1mb 60f
1:00am 2 3 mph 1020.1mb 60f
12:00am 3 3 mph 1019.9mb 60f
Wed 08/16 11:00pm 8 8 mph 1019.7mb 61f
10:00pm 14 14 mph 1019mb 62f
9:00pm 8 9 mph 1018.6mb 63f
8:00pm 10 13 mph 1018.1mb 62f
7:00pm 11 13 mph 1018mb 63f
6:00pm 9 10 mph 1018.3mb 63f
5:00pm 7 8 mph 1018.6mb 63f
4:00pm 8 8 mph 1019.1mb 63f
3:00pm 6 7 mph 1019.4mb 63f
2:00pm 6 6 mph 1019.8mb 63f
1:00pm 5 6 mph 1019.8mb 61f
12:00pm 5 5 mph 1020.3mb 59f
11:00am 5 6 mph 1019.7mb 60f
10:00am 2 3 mph 1019.6mb 62f
9:00am 2 2 mph 1019.6mb 58f
8:00am 1 1 mph 1019.5mb 57f
7:00am  -  1 mph 1019.3mb 55f
6:00am 2 2 mph 1019mb 55f
5:00am 3 5 mph 1018.7mb 56f
4:00am 2 2 mph 1018.4mb 56f
3:00am 2 3 mph 1018.1mb 57f
2:00am 1 2 mph 1017.7mb 57f
1:00am 1 2 mph 1017.3mb 58f
12:00am 1 2 mph 1017.1mb 58f
Tue 08/15 11:00pm 7 8 mph 1016.8mb 59f
10:00pm 10 11 mph 1016.4mb 60f
9:00pm 14 15 mph 1015.9mb 61f
8:00pm 13 15 mph 1015.3mb 62f
7:00pm 11 11 mph 1015.1mb 63f
6:00pm 6 8 mph 1014.9mb 65f
5:00pm 7 8 mph 1015.1mb 67f
4:00pm 2 3 mph 1015.4mb 65f
3:00pm 3 3 mph 1015.7mb 64f
2:00pm 7 8 mph 1015.8mb 62f
1:00pm 5 6 mph 1015.9mb 61f
12:00pm 7 7 mph 1015.7mb 59f
11:00am 7 7 mph 1016mb 56f
10:00am 8 8 mph 1015.6mb 54f
9:00am 8 9 mph 1015.6mb 54f
8:00am 8 9 mph 1015mb 54f
7:00am 6 6 mph 1014.8mb 54f
6:00am 3 3 mph 1014.4mb 54f
5:00am  -  1 mph 1014.1mb 53f
4:00am 3 5 mph 1014mb 54f
3:00am 3 3 mph 1014.2mb 54f
2:00am 2 2 mph 1014mb 55f
1:00am  -  1 mph 1014mb 56f
12:00am 7 7 mph 1013.8mb 58f
Mon 08/14 11:00pm 7 8 mph 1013.8mb 58f
10:00pm 8 9 mph 1013.6mb 57f
9:00pm 11 11 mph 1013.7mb 59f
8:00pm 9 10 mph 1013.7mb 60f
7:00pm 10 11 mph 1013.7mb 60f
6:00pm 13 14 mph 1014mb 61f
4:00pm 7 8 mph 1014.7mb 62f
3:00pm 5 6 mph 1015.5mb 61f
2:00pm 5 5 mph 1015.9mb 61f
1:00pm 3 3 mph 1016.4mb 62f
12:00pm 6 6 mph 1016.8mb 60f
11:00am 6 6 mph 1017.2mb 58f
10:00am 5 5 mph 1017.3mb 57f
9:00am 3 3 mph 1017.3mb 57f